Time;durP1;ratioP1;P1;durP2;ratioP2;P2;SDS_P1;SDS_P2;PMS_P1;PMS_P2;Temp;Humidity;BMP_temperature;BMP_pressure;BME280_temperature;BME280_humidity;BME280_pressure;Samples;Min_cycle;Max_cycle;Signal;HPM_P1;HPM_P2
2021/05/04 00:01:54;;;;;;;0.60;0.60;;;6.00;99.90;;;;;;5069083;28;20227;-78
2021/05/04 00:04:20;;;;;;;0.60;0.60;;;6.00;99.90;;;;;;5068931;28;20234;-78
2021/05/04 00:06:46;;;;;;;0.50;0.50;;;6.00;99.90;;;;;;5069304;28;20203;-77
2021/05/04 00:09:13;;;;;;;0.60;0.60;;;6.00;99.90;;;;;;5068983;28;20253;-77
2021/05/04 00:11:39;;;;;;;0.60;0.60;;;6.10;99.90;;;;;;5069031;28;20207;-77
2021/05/04 00:14:06;;;;;;;0.60;0.60;;;6.00;99.90;;;;;;5069339;28;20204;-77
2021/05/04 00:16:32;;;;;;;0.60;0.60;;;6.20;99.90;;;;;;5069124;28;20678;-77
2021/05/04 00:18:58;;;;;;;0.60;0.60;;;6.20;99.90;;;;;;5068681;28;20342;-77
2021/05/04 00:21:24;;;;;;;0.50;0.50;;;6.20;99.90;;;;;;5068865;28;20222;-78
2021/05/04 00:23:50;;;;;;;0.60;0.60;;;6.20;99.90;;;;;;5069051;28;20269;-77
2021/05/04 00:26:17;;;;;;;0.60;0.60;;;6.20;99.90;;;;;;5068852;28;20273;-77
2021/05/04 00:28:43;;;;;;;0.60;0.60;;;6.20;99.90;;;;;;5069011;28;20203;-77
2021/05/04 00:31:09;;;;;;;0.60;0.60;;;6.30;99.90;;;;;;5068873;28;20282;-77
2021/05/04 00:33:38;;;;;;;0.60;0.60;;;6.30;99.90;;;;;;5072924;28;20203;-77
2021/05/04 00:36:05;;;;;;;0.60;0.60;;;6.30;99.90;;;;;;5072625;28;20345;-77
2021/05/04 00:38:31;;;;;;;0.60;0.60;;;6.30;99.90;;;;;;5072797;28;20203;-78
2021/05/04 00:40:57;;;;;;;0.60;0.60;;;6.30;99.90;;;;;;5072849;28;20210;-78
2021/05/04 00:43:28;;;;;;;0.52;0.52;;;6.30;99.90;;;;;;5072670;28;20293;-78
2021/05/04 00:45:55;;;;;;;0.52;0.52;;;6.30;99.90;;;;;;5072952;28;20200;-78
2021/05/04 00:48:21;;;;;;;0.60;0.60;;;6.50;99.90;;;;;;5072612;28;20204;-78
2021/05/04 00:50:48;;;;;;;0.60;0.60;;;6.30;99.90;;;;;;5072499;28;20208;-78
2021/05/04 00:53:15;;;;;;;0.60;0.60;;;6.30;99.90;;;;;;5072622;28;20195;-80
2021/05/04 00:55:42;;;;;;;0.60;0.60;;;6.30;99.90;;;;;;5072683;28;20734;-78
2021/05/04 00:58:09;;;;;;;0.60;0.60;;;6.30;99.90;;;;;;5072272;28;20409;-78
2021/05/04 01:00:36;;;;;;;0.57;0.57;;;6.30;99.90;;;;;;5072262;28;20207;-78
2021/05/04 01:03:04;;;;;;;0.60;0.60;;;6.30;99.90;;;;;;5072475;28;20230;-78
2021/05/04 01:05:30;;;;;;;0.60;0.60;;;6.30;99.90;;;;;;5072109;28;20287;-78
2021/05/04 01:07:56;;;;;;;0.60;0.60;;;6.30;99.90;;;;;;5072172;28;20210;-78
2021/05/04 01:10:22;;;;;;;0.60;0.60;;;6.40;99.90;;;;;;5072182;28;20208;-78
2021/05/04 01:12:48;;;;;;;0.60;0.60;;;6.30;99.90;;;;;;5072259;28;20574;-78
2021/05/04 01:15:15;;;;;;;0.50;0.50;;;6.30;99.90;;;;;;5072008;28;20701;-78
2021/05/04 01:17:42;;;;;;;0.50;0.50;;;6.40;99.90;;;;;;5072150;28;20204;-78
2021/05/04 01:20:09;;;;;;;0.60;0.60;;;6.30;99.90;;;;;;5072171;28;20301;-78
2021/05/04 01:22:36;;;;;;;0.60;0.60;;;6.30;99.90;;;;;;5071831;28;20227;-78
2021/05/04 01:25:04;;;;;;;0.60;0.60;;;6.30;99.90;;;;;;5071954;28;20204;-78
2021/05/04 01:27:30;;;;;;;0.50;0.50;;;6.40;99.90;;;;;;5071692;28;20242;-78
2021/05/04 01:29:56;;;;;;;0.50;0.50;;;6.30;99.90;;;;;;5071905;28;20214;-78
2021/05/04 01:32:22;;;;;;;0.60;0.60;;;6.30;99.90;;;;;;5071667;28;20192;-78
2021/05/04 01:34:49;;;;;;;0.60;0.60;;;6.40;99.90;;;;;;5071788;28;20204;-78
2021/05/04 01:37:15;;;;;;;0.60;0.60;;;6.40;99.90;;;;;;5071743;28;20203;-78
2021/05/04 01:39:44;;;;;;;0.57;0.57;;;6.40;99.90;;;;;;5071769;28;20208;-78
2021/05/04 01:42:11;;;;;;;0.60;0.60;;;6.40;99.90;;;;;;5071543;28;20227;-78
2021/05/04 01:44:37;;;;;;;0.60;0.60;;;6.40;99.90;;;;;;5071645;28;20214;-78
2021/05/04 01:47:04;;;;;;;0.60;0.60;;;6.40;99.90;;;;;;5071687;28;20669;-78
2021/05/04 01:49:31;;;;;;;0.60;0.60;;;6.40;99.90;;;;;;5071277;28;20214;-79
2021/05/04 01:51:57;;;;;;;0.60;0.60;;;6.40;99.90;;;;;;5071800;28;20245;-79
2021/05/04 01:54:24;;;;;;;0.55;0.55;;;6.40;99.90;;;;;;5071491;28;20673;-79
2021/05/04 01:56:53;;;;;;;0.60;0.60;;;6.50;99.90;;;;;;5071519;28;20210;-79
2021/05/04 01:59:19;;;;;;;0.60;0.60;;;6.40;99.90;;;;;;5071188;28;20658;-78
2021/05/04 02:01:45;;;;;;;0.60;0.60;;;6.50;99.90;;;;;;5071284;28;20269;-77
2021/05/04 02:04:11;;;;;;;0.50;0.50;;;6.50;99.90;;;;;;5071223;28;20207;-78
2021/05/04 02:06:37;;;;;;;0.60;0.60;;;6.50;99.90;;;;;;5071036;28;20213;-78
2021/05/04 02:09:05;;;;;;;0.60;0.60;;;6.50;99.90;;;;;;5071203;28;20489;-78
2021/05/04 02:11:31;;;;;;;0.60;0.60;;;6.50;99.90;;;;;;5071042;28;20674;-77
2021/05/04 02:13:58;;;;;;;0.60;0.60;;;6.80;99.90;;;;;;5071178;28;20245;-78
2021/05/04 02:16:25;;;;;;;0.60;0.60;;;6.60;99.90;;;;;;5070770;28;20203;-77
2021/05/04 02:18:51;;;;;;;0.60;0.60;;;6.60;99.90;;;;;;5071161;28;20631;-78
2021/05/04 02:21:18;;;;;;;0.60;0.60;;;6.60;99.90;;;;;;5070960;28;20662;-78
2021/05/04 02:23:44;;;;;;;0.60;0.60;;;6.70;99.90;;;;;;5071051;28;20231;-77
2021/05/04 02:26:12;;;;;;;0.55;0.55;;;6.80;99.90;;;;;;5070446;28;20352;-78
2021/05/04 02:28:38;;;;;;;0.60;0.60;;;6.80;99.90;;;;;;5070878;28;20226;-78
2021/05/04 02:31:05;;;;;;;0.60;0.60;;;6.90;99.90;;;;;;5070868;28;20259;-78
2021/05/04 02:33:31;;;;;;;0.60;0.60;;;6.90;99.90;;;;;;5070582;28;20207;-77
2021/05/04 02:35:58;;;;;;;0.60;0.60;;;6.90;99.90;;;;;;5070761;28;20204;-77
2021/05/04 02:38:24;;;;;;;0.60;0.60;;;6.90;99.90;;;;;;5070892;28;20574;-78
2021/05/04 02:40:50;;;;;;;0.50;0.50;;;7.00;99.90;;;;;;5070691;28;20207;-77
2021/05/04 02:43:17;;;;;;;0.60;0.60;;;7.00;99.90;;;;;;5070412;28;20215;-78
2021/05/04 02:45:43;;;;;;;0.50;0.50;;;7.00;99.90;;;;;;5070548;28;20207;-77
2021/05/04 02:48:10;;;;;;;0.57;0.57;;;7.00;99.90;;;;;;5070339;28;20727;-77
2021/05/04 02:50:36;;;;;;;0.60;0.60;;;7.00;99.90;;;;;;5069979;28;20470;-77
2021/05/04 02:53:02;;;;;;;0.60;0.60;;;7.00;99.90;;;;;;5070388;28;20207;-77
2021/05/04 02:55:29;;;;;;;0.60;0.60;;;7.00;99.90;;;;;;5069682;28;20203;-77
2021/05/04 02:57:55;;;;;;;0.60;0.60;;;7.00;99.90;;;;;;5070441;28;20250;-77
2021/05/04 03:00:22;;;;;;;0.60;0.60;;;6.80;99.90;;;;;;5069906;28;20200;-78
2021/05/04 03:02:48;;;;;;;0.60;0.60;;;7.00;99.90;;;;;;5069950;28;20220;-77
2021/05/04 03:05:15;;;;;;;0.60;0.60;;;7.00;99.90;;;;;;5070000;28;20602;-78
2021/05/04 03:07:41;;;;;;;0.60;0.60;;;7.10;99.90;;;;;;5069963;28;20582;-78
2021/05/04 03:10:08;;;;;;;0.60;0.60;;;7.10;99.90;;;;;;5069841;28;20207;-78
2021/05/04 03:12:35;;;;;;;0.60;0.60;;;7.00;99.90;;;;;;5070196;28;20200;-77
2021/05/04 03:15:01;;;;;;;0.60;0.60;;;7.00;99.90;;;;;;5070019;28;20207;-78
2021/05/04 03:17:27;;;;;;;0.60;0.60;;;7.00;99.90;;;;;;5070174;28;20215;-78
2021/05/04 03:19:53;;;;;;;0.60;0.60;;;7.00;99.90;;;;;;5069535;28;20716;-78
2021/05/04 03:22:20;;;;;;;0.57;0.57;;;7.10;99.90;;;;;;5069740;28;20512;-78
2021/05/04 03:24:47;;;;;;;0.50;0.50;;;7.20;99.90;;;;;;5069624;28;20218;-78
2021/05/04 03:27:13;;;;;;;0.60;0.60;;;7.20;99.90;;;;;;5069430;28;20636;-78
2021/05/04 03:29:39;;;;;;;0.60;0.60;;;7.20;99.90;;;;;;5069706;28;20760;-78
2021/05/04 03:32:06;;;;;;;0.60;0.60;;;7.30;99.90;;;;;;5069621;28;20204;-78
2021/05/04 03:34:32;;;;;;;0.50;0.50;;;7.30;99.90;;;;;;5069472;28;20203;-78
2021/05/04 03:36:58;;;;;;;0.60;0.60;;;7.30;99.90;;;;;;5069650;28;20731;-78
2021/05/04 03:39:25;;;;;;;0.60;0.60;;;7.30;99.90;;;;;;5069554;28;20230;-78
2021/05/04 03:41:51;;;;;;;0.60;0.60;;;7.30;99.90;;;;;;5069256;28;20215;-78
2021/05/04 03:44:17;;;;;;;0.60;0.60;;;7.30;99.90;;;;;;5069320;28;20230;-78
2021/05/04 03:46:43;;;;;;;0.60;0.60;;;7.30;99.90;;;;;;5069176;28;20302;-78
2021/05/04 03:49:10;;;;;;;0.60;0.60;;;7.30;99.90;;;;;;5069463;28;20574;-78
2021/05/04 03:51:36;;;;;;;0.60;0.60;;;7.30;99.90;;;;;;5069263;28;20212;-78
2021/05/04 03:54:02;;;;;;;0.60;0.60;;;7.20;99.90;;;;;;5069060;28;20196;-78
2021/05/04 03:56:29;;;;;;;0.60;0.60;;;7.20;99.90;;;;;;5069159;28;20203;-79
2021/05/04 03:58:56;;;;;;;0.60;0.60;;;7.20;99.90;;;;;;5069131;28;20576;-78
2021/05/04 04:01:22;;;;;;;0.60;0.60;;;7.30;99.90;;;;;;5068902;28;20227;-78
2021/05/04 04:03:48;;;;;;;0.60;0.60;;;7.30;99.90;;;;;;5069034;28;20269;-79
2021/05/04 04:06:14;;;;;;;0.60;0.60;;;7.40;99.90;;;;;;5068048;28;20322;-79
2021/05/04 04:08:40;;;;;;;0.60;0.60;;;7.50;99.90;;;;;;5068969;28;20547;-78
2021/05/04 04:11:06;;;;;;;0.60;0.60;;;7.50;99.90;;;;;;5068620;28;20232;-78
2021/05/04 04:13:34;;;;;;;0.60;0.60;;;7.50;99.90;;;;;;5068985;28;20257;-78
2021/05/04 04:16:00;;;;;;;0.60;0.60;;;7.50;99.90;;;;;;5069169;28;20207;-78
2021/05/04 04:18:27;;;;;;;0.57;0.57;;;7.60;99.90;;;;;;5068750;28;20601;-78
2021/05/04 04:20:53;;;;;;;0.50;0.50;;;7.50;99.90;;;;;;5068800;28;20232;-80
2021/05/04 04:23:19;;;;;;;0.55;0.55;;;7.60;99.90;;;;;;5068873;28;20223;-79
2021/05/04 04:25:45;;;;;;;0.60;0.60;;;7.60;99.90;;;;;;5068953;28;20207;-79
2021/05/04 04:28:11;;;;;;;0.60;0.60;;;7.60;99.90;;;;;;5068622;28;20916;-79
2021/05/04 04:30:38;;;;;;;0.60;0.60;;;7.60;99.90;;;;;;5068796;28;20204;-79
2021/05/04 04:33:05;;;;;;;0.60;0.60;;;7.70;99.90;;;;;;5068876;28;20207;-78
2021/05/04 04:35:32;;;;;;;0.60;0.60;;;7.80;99.90;;;;;;5068761;28;20253;-79
2021/05/04 04:37:58;;;;;;;0.60;0.60;;;8.00;99.90;;;;;;5068559;28;20316;-79
2021/05/04 04:40:24;;;;;;;0.60;0.60;;;8.10;99.90;;;;;;5068739;28;20229;-79
2021/05/04 04:42:50;;;;;;;0.60;0.60;;;8.10;99.90;;;;;;5068728;28;20686;-78
2021/05/04 04:45:16;;;;;;;0.60;0.60;;;8.10;99.90;;;;;;5068638;28;20215;-79
2021/05/04 04:47:43;;;;;;;0.60;0.60;;;8.20;99.90;;;;;;5068778;28;20723;-79
2021/05/04 04:50:10;;;;;;;0.60;0.60;;;8.40;99.90;;;;;;5068821;28;20226;-79
2021/05/04 04:52:36;;;;;;;0.60;0.60;;;8.50;99.90;;;;;;5068676;28;20211;-79
2021/05/04 04:55:03;;;;;;;0.60;0.60;;;8.60;99.90;;;;;;5068546;28;20407;-79
2021/05/04 04:57:29;;;;;;;0.60;0.60;;;8.60;99.90;;;;;;5068677;28;20210;-79
2021/05/04 04:59:55;;;;;;;0.60;0.60;;;8.60;99.90;;;;;;5068609;28;20269;-79
2021/05/04 05:02:21;;;;;;;0.60;0.60;;;8.60;99.90;;;;;;5068227;28;20713;-79
2021/05/04 05:04:49;;;;;;;0.60;0.60;;;8.50;99.90;;;;;;5068349;28;20231;-79
2021/05/04 05:07:16;;;;;;;0.60;0.60;;;8.40;99.90;;;;;;5068667;28;20217;-79
2021/05/04 05:09:45;;;;;;;0.60;0.60;;;8.40;99.90;;;;;;5068206;28;20211;-79
2021/05/04 05:12:11;;;;;;;0.60;0.60;;;8.30;99.90;;;;;;5068638;28;20281;-79
2021/05/04 05:14:39;;;;;;;0.60;0.60;;;8.30;99.90;;;;;;5068434;28;20210;-79
2021/05/04 05:17:05;;;;;;;0.60;0.60;;;8.30;99.90;;;;;;5068379;28;20337;-79
2021/05/04 05:19:31;;;;;;;0.60;0.60;;;8.30;99.90;;;;;;5072246;28;20206;-79
2021/05/04 05:22:00;;;;;;;0.60;0.60;;;8.30;99.90;;;;;;5071928;28;20222;-79
2021/05/04 05:24:27;;;;;;;0.60;0.60;;;8.20;99.90;;;;;;5072127;28;20670;-79
2021/05/04 05:26:53;;;;;;;0.60;0.60;;;8.20;99.90;;;;;;5071656;28;20400;-79
2021/05/04 05:29:19;;;;;;;0.60;0.60;;;8.20;99.90;;;;;;5072282;28;20215;-79
2021/05/04 05:31:45;;;;;;;0.50;0.50;;;8.20;99.90;;;;;;5071784;28;20476;-79
2021/05/04 05:34:12;;;;;;;0.60;0.60;;;8.20;99.90;;;;;;5071531;28;20214;-79
2021/05/04 05:36:38;;;;;;;0.60;0.60;;;8.20;99.90;;;;;;5071899;28;20582;-79
2021/05/04 05:39:05;;;;;;;0.60;0.60;;;8.20;99.90;;;;;;5072030;28;20207;-79
2021/05/04 05:41:32;;;;;;;0.55;0.55;;;8.20;99.90;;;;;;5071438;28;20206;-79
2021/05/04 05:43:58;;;;;;;0.60;0.60;;;8.80;99.90;;;;;;5071599;28;20222;-79
2021/05/04 05:46:24;;;;;;;0.50;0.50;;;8.20;99.90;;;;;;5071951;28;20238;-79
2021/05/04 05:48:51;;;;;;;0.50;0.50;;;8.20;99.90;;;;;;5071678;28;20207;-78
2021/05/04 05:51:17;;;;;;;0.60;0.60;;;8.20;99.90;;;;;;5071772;28;20215;-78
2021/05/04 05:53:43;;;;;;;0.60;0.60;;;8.30;99.90;;;;;;5071743;28;20213;-79
2021/05/04 05:56:10;;;;;;;0.60;0.60;;;8.20;99.90;;;;;;5071730;28;20208;-78
2021/05/04 05:58:36;;;;;;;0.60;0.60;;;8.20;99.90;;;;;;5071351;28;20203;-78
2021/05/04 06:01:02;;;;;;;0.60;0.60;;;8.20;99.90;;;;;;5071571;28;20206;-79
2021/05/04 06:03:30;;;;;;;0.60;0.60;;;8.20;99.90;;;;;;5071339;28;20223;-79
2021/05/04 06:05:56;;;;;;;0.60;0.60;;;8.10;99.90;;;;;;5070769;28;20245;-78
2021/05/04 06:08:23;;;;;;;0.60;0.60;;;8.10;99.90;;;;;;5071435;28;20678;-77
2021/05/04 06:10:49;;;;;;;0.60;0.60;;;8.00;99.90;;;;;;5071290;28;20662;-78
2021/05/04 06:13:16;;;;;;;0.52;0.52;;;8.00;99.90;;;;;;5071364;28;20208;-79
2021/05/04 06:15:43;;;;;;;0.60;0.60;;;7.90;99.90;;;;;;5071112;28;20686;-78
2021/05/04 06:18:10;;;;;;;0.60;0.60;;;7.80;99.90;;;;;;5071185;28;20658;-78
2021/05/04 06:20:36;;;;;;;0.60;0.60;;;7.80;99.90;;;;;;5071167;28;20211;-77
2021/05/04 06:23:03;;;;;;;0.60;0.60;;;7.80;99.90;;;;;;5070848;28;20223;-77
2021/05/04 06:25:29;;;;;;;0.57;0.57;;;7.70;99.90;;;;;;5070851;28;20211;-78
2021/05/04 06:27:59;;;;;;;0.60;0.60;;;7.70;99.90;;;;;;5071117;28;20212;-80
2021/05/04 06:30:27;;;;;;;0.50;0.50;;;7.80;99.90;;;;;;5069839;28;20696;-78
2021/05/04 06:32:54;;;;;;;0.60;0.60;;;7.80;99.90;;;;;;5070865;28;20207;-77
2021/05/04 06:35:21;;;;;;;0.60;0.60;;;7.90;99.90;;;;;;5070918;28;20200;-79
2021/05/04 06:37:47;;;;;;;0.52;0.52;;;8.00;99.90;;;;;;5070811;28;20203;-79
2021/05/04 06:40:14;;;;;;;0.60;0.60;;;8.10;99.90;;;;;;5070662;28;20666;-80
2021/05/04 06:42:41;;;;;;;0.50;0.50;;;8.30;99.90;;;;;;5070737;28;20486;-81
2021/05/04 06:45:08;;;;;;;0.60;0.60;;;8.40;99.90;;;;;;5070506;28;20587;-80
2021/05/04 06:47:35;;;;;;;0.60;0.60;;;8.60;99.90;;;;;;5071027;28;20207;-78
2021/05/04 06:50:02;;;;;;;0.60;0.60;;;8.60;99.90;;;;;;5070700;28;20200;-78
2021/05/04 06:52:28;;;;;;;0.60;0.60;;;8.60;99.90;;;;;;5070761;28;20210;-78
2021/05/04 06:54:54;;;;;;;0.60;0.60;;;8.60;99.90;;;;;;5070217;28;20429;-79
2021/05/04 06:57:20;;;;;;;0.60;0.60;;;8.60;99.90;;;;;;5070535;28;20257;-79
2021/05/04 06:59:46;;;;;;;0.60;0.60;;;8.50;99.90;;;;;;5070455;28;20203;-77
2021/05/04 07:02:12;;;;;;;0.50;0.50;;;8.60;99.90;;;;;;5070391;28;20662;-77
2021/05/04 07:04:39;;;;;;;0.60;0.60;;;8.60;99.90;;;;;;5070122;28;20300;-77
2021/05/04 07:07:05;;;;;;;0.60;0.60;;;8.60;99.90;;;;;;5070220;28;20214;-80
2021/05/04 07:09:31;;;;;;;0.50;0.50;;;8.50;99.90;;;;;;5070499;28;20226;-83
2021/05/04 07:11:59;;;;;;;0.60;0.60;;;8.50;99.90;;;;;;5070248;28;20746;-78
2021/05/04 07:14:25;;;;;;;0.60;0.60;;;8.50;99.90;;;;;;5069742;28;20611;-79
2021/05/04 07:16:51;;;;;;;0.60;0.60;;;8.50;99.90;;;;;;5065408;28;20214;-78
2021/05/04 07:19:17;;;;;;;0.57;0.57;;;8.60;99.90;;;;;;5067977;28;20621;-78
2021/05/04 07:21:44;;;;;;;0.50;0.50;;;8.60;99.90;;;;;;5067531;28;20661;-78
2021/05/04 07:24:13;;;;;;;0.60;0.60;;;8.60;99.90;;;;;;5070123;28;20643;-78
2021/05/04 07:26:39;;;;;;;0.60;0.60;;;8.70;99.90;;;;;;5069531;28;20592;-78
2021/05/04 07:29:06;;;;;;;0.60;0.60;;;8.80;99.90;;;;;;5070040;28;20685;-78
2021/05/04 07:31:34;;;;;;;0.60;0.60;;;8.90;99.90;;;;;;5070263;28;20666;-78
2021/05/04 07:34:00;;;;;;;0.60;0.60;;;9.00;99.90;;;;;;5069608;28;20230;-78
2021/05/04 07:36:26;;;;;;;0.60;0.60;;;9.00;99.90;;;;;;5070287;28;20587;-78
2021/05/04 07:38:53;;;;;;;0.60;0.60;;;9.00;99.90;;;;;;5069884;28;20642;-78
2021/05/04 07:41:19;;;;;;;0.60;0.60;;;9.10;99.90;;;;;;5069388;28;20210;-78
2021/05/04 07:43:48;;;;;;;0.50;0.50;;;9.20;99.90;;;;;;5069634;28;20234;-78
2021/05/04 07:46:15;;;;;;;0.60;0.60;;;9.30;99.90;;;;;;5069632;28;20218;-80
2021/05/04 07:48:41;;;;;;;0.60;0.60;;;9.40;99.90;;;;;;5069514;28;20568;-82
2021/05/04 07:51:08;;;;;;;0.60;0.60;;;9.30;99.90;;;;;;5069919;28;20940;-79
2021/05/04 07:53:34;;;;;;;0.60;0.60;;;9.50;99.90;;;;;;5071584;28;20226;-79
2021/05/04 07:56:01;;;;;;;0.60;0.60;;;9.50;99.90;;;;;;5069347;28;20257;-78
2021/05/04 07:58:27;;;;;;;0.52;0.52;;;9.50;99.90;;;;;;5069531;28;20682;-78
2021/05/04 08:00:54;;;;;;;0.60;0.60;;;9.40;99.90;;;;;;5069518;28;20207;-78
2021/05/04 08:03:20;;;;;;;0.60;0.60;;;9.10;99.90;;;;;;5069572;28;20223;-78
2021/05/04 08:05:46;;;;;;;0.60;0.60;;;9.00;99.90;;;;;;5069082;28;20450;-78
2021/05/04 08:08:13;;;;;;;0.60;0.60;;;8.90;99.90;;;;;;5069489;28;20207;-78
2021/05/04 08:10:40;;;;;;;0.50;0.50;;;9.00;99.90;;;;;;5069604;28;20207;-78
2021/05/04 08:13:07;;;;;;;0.60;0.60;;;9.20;99.90;;;;;;5068975;28;20285;-78
2021/05/04 08:15:34;;;;;;;0.50;0.50;;;9.30;99.90;;;;;;5069551;28;20581;-78
2021/05/04 08:18:02;;;;;;;0.60;0.60;;;9.40;99.90;;;;;;5069356;28;20243;-78
2021/05/04 08:20:31;;;;;;;0.60;0.60;;;9.70;99.90;;;;;;5069301;28;20207;-78
2021/05/04 08:22:57;;;;;;;0.60;0.60;;;9.80;99.90;;;;;;5069184;28;20648;-78
2021/05/04 08:25:23;;;;;;;0.60;0.60;;;10.00;99.90;;;;;;5069291;28;20211;-79
2021/05/04 08:27:50;;;;;;;0.60;0.60;;;10.20;99.90;;;;;;5070082;28;20230;-78
2021/05/04 08:30:17;;;;;;;0.60;0.60;;;10.20;99.90;;;;;;5069323;28;20587;-78
2021/05/04 08:32:43;;;;;;;0.50;0.50;;;10.10;99.90;;;;;;5069457;28;20726;-78
2021/05/04 08:35:10;;;;;;;0.57;0.57;;;9.90;99.90;;;;;;5069734;28;20238;-79
2021/05/04 08:37:36;;;;;;;0.57;0.57;;;9.90;99.90;;;;;;5068749;28;20207;-80
2021/05/04 08:40:03;;;;;;;0.50;0.50;;;9.90;99.90;;;;;;5068143;28;20948;-80
2021/05/04 08:42:29;;;;;;;0.60;0.60;;;9.80;99.90;;;;;;5069392;28;20728;-79
2021/05/04 08:44:56;;;;;;;0.60;0.60;;;9.70;99.90;;;;;;5069533;28;20203;-79
2021/05/04 08:47:23;;;;;;;0.60;0.60;;;9.80;99.90;;;;;;5069489;28;20438;-78
2021/05/04 08:49:50;;;;;;;0.60;0.60;;;9.90;99.90;;;;;;5066370;28;20203;-80
2021/05/04 08:52:17;;;;;;;0.60;0.60;;;9.80;99.90;;;;;;5069400;28;20643;-84
2021/05/04 08:54:43;;;;;;;0.60;0.60;;;9.90;99.90;;;;;;5073614;28;20212;-78
2021/05/04 08:57:09;;;;;;;0.55;0.55;;;10.00;99.90;;;;;;5073251;28;20210;-78
2021/05/04 08:59:35;;;;;;;0.50;0.50;;;10.00;99.90;;;;;;5072073;28;20211;-86
2021/05/04 09:02:02;;;;;;;0.60;0.60;;;10.00;99.90;;;;;;5035182;28;20303;-81
2021/05/04 09:04:31;;;;;;;0.60;0.60;;;10.10;99.90;;;;;;5068445;28;20216;-81
2021/05/04 09:07:13;;;;;;;0.60;0.60;;;10.10;99.90;;;;;;5070017;28;20585;-80
2021/05/04 09:10:08;;;;;;;0.60;0.60;;;10.00;99.90;;;;;;5070973;28;20199;-81
2021/05/04 09:12:38;;;;;;;0.60;0.60;;;10.10;99.90;;;;;;5068934;28;20222;-81
2021/05/04 09:18:51;;;;;;;0.60;0.60;;;9.90;99.90;;;;;;5046262;28;20573;-78
2021/05/04 09:21:30;;;;;;;0.60;0.60;;;9.90;99.90;;;;;;5070109;28;20204;-78
2021/05/04 09:23:56;;;;;;;0.60;0.60;;;9.90;99.90;;;;;;5055581;28;20229;-78
2021/05/04 09:26:31;;;;;;;0.60;0.60;;;9.90;99.90;;;;;;5070755;28;20223;-78
2021/05/04 09:28:58;;;;;;;0.60;0.60;;;9.90;99.90;;;;;;5064573;28;20704;-79
2021/05/04 09:31:26;;;;;;;0.55;0.55;;;9.80;99.90;;;;;;5056830;28;21031;-78
2021/05/04 09:33:53;;;;;;;0.60;0.60;;;9.80;99.90;;;;;;5061614;28;20208;-78
2021/05/04 09:36:43;;;;;;;0.60;0.60;;;9.80;99.90;;;;;;5068291;28;20240;-77
2021/05/04 09:39:11;;;;;;;0.60;0.60;;;9.70;99.90;;;;;;5069695;28;20216;-78
2021/05/04 09:41:37;;;;;;;0.60;0.60;;;9.60;99.90;;;;;;5066633;28;20212;-78
2021/05/04 09:44:04;;;;;;;0.60;0.60;;;9.50;99.90;;;;;;5070495;28;20250;-78
2021/05/04 09:46:47;;;;;;;0.60;0.60;;;9.40;99.90;;;;;;5068662;28;20690;-78
2021/05/04 09:49:27;;;;;;;0.60;0.60;;;9.70;99.90;;;;;;5069047;28;20432;-78
2021/05/04 09:51:56;;;;;;;0.60;0.60;;;9.50;99.90;;;;;;5069975;28;20553;-78
2021/05/04 09:54:28;;;;;;;0.60;0.60;;;9.60;99.90;;;;;;5068579;28;20777;-78
2021/05/04 09:56:55;;;;;;;0.60;0.60;;;9.60;99.90;;;;;;5070159;28;20203;-78
2021/05/04 09:59:23;;;;;;;0.60;0.60;;;9.70;99.90;;;;;;5069529;28;20212;-77
2021/05/04 10:01:49;;;;;;;0.60;0.60;;;9.60;99.90;;;;;;5069444;28;20549;-77
2021/05/04 10:04:18;;;;;;;0.60;0.60;;;9.60;99.90;;;;;;5069178;28;20251;-77
2021/05/04 10:06:44;;;;;;;0.60;0.60;;;9.70;99.90;;;;;;5070120;28;20235;-77
2021/05/04 10:09:15;;;;;;;0.52;0.52;;;9.60;99.90;;;;;;5069394;28;20204;-77
2021/05/04 10:11:42;;;;;;;0.60;0.60;;;9.70;99.90;;;;;;5069116;28;20211;-77
2021/05/04 10:14:08;;;;;;;0.60;0.60;;;9.80;99.90;;;;;;5069381;28;20556;-77
2021/05/04 10:16:34;;;;;;;0.60;0.60;;;9.90;99.90;;;;;;5069416;28;20203;-77
2021/05/04 10:19:03;;;;;;;0.50;0.50;;;11.40;99.90;;;;;;5069243;28;20690;-77
2021/05/04 10:21:30;;;;;;;0.60;0.60;;;10.00;99.90;;;;;;5069630;28;20211;-77
2021/05/04 10:23:56;;;;;;;0.60;0.60;;;10.00;99.90;;;;;;5067519;28;20220;-77
2021/05/04 10:26:27;;;;;;;0.60;0.60;;;10.00;99.90;;;;;;5068684;28;20223;-78
2021/05/04 10:28:57;;;;;;;0.60;0.60;;;10.00;99.90;;;;;;5069263;28;20258;-77
2021/05/04 10:31:34;;;;;;;0.60;0.60;;;10.00;99.90;;;;;;5068959;28;20663;-78
2021/05/04 10:34:32;;;;;;;0.50;0.50;;;10.10;99.90;;;;;;5070020;28;20202;-79
2021/05/04 10:37:00;;;;;;;0.50;0.50;;;10.10;99.90;;;;;;5068878;28;20203;-79
2021/05/04 10:39:39;;;;;;;0.60;0.60;;;10.20;99.90;;;;;;5069881;28;20230;-78
2021/05/04 10:42:07;;;;;;;0.60;0.60;;;10.30;99.90;;;;;;5070194;28;20943;-77
2021/05/04 10:45:08;;;;;;;0.60;0.60;;;10.30;99.90;;;;;;5070247;28;20273;-77
2021/05/04 10:47:49;;;;;;;0.60;0.60;;;10.30;99.90;;;;;;5070503;28;20576;-76
2021/05/04 10:50:22;;;;;;;0.60;0.60;;;10.30;99.90;;;;;;5069738;28;20249;-77
2021/05/04 10:53:00;;;;;;;0.60;0.60;;;10.40;99.90;;;;;;5066110;28;20196;-76
2021/05/04 10:56:05;;;;;;;0.60;0.60;;;10.50;99.90;;;;;;5066644;28;20507;-78
2021/05/04 10:58:44;;;;;;;0.60;0.60;;;10.70;99.90;;;;;;5059582;28;20661;-77
2021/05/04 11:01:15;;;;;;;0.60;0.60;;;10.80;99.90;;;;;;5068165;28;20481;-77
2021/05/04 11:03:57;;;;;;;0.60;0.60;;;10.60;99.90;;;;;;5064723;28;20571;-77
2021/05/04 11:06:44;;;;;;;0.60;0.60;;;10.60;99.90;;;;;;5067337;28;20259;-77
2021/05/04 11:09:14;;;;;;;0.60;0.60;;;10.50;99.90;;;;;;5069246;28;20260;-77
2021/05/04 11:11:45;;;;;;;0.57;0.57;;;10.40;99.90;;;;;;5069543;28;20204;-78
2021/05/04 11:14:29;;;;;;;0.60;0.60;;;10.40;99.90;;;;;;5069360;28;20200;-76
2021/05/04 11:17:16;;;;;;;0.60;0.60;;;10.30;99.90;;;;;;5069024;28;20203;-76
2021/05/04 11:19:45;;;;;;;0.60;0.60;;;10.30;99.90;;;;;;5068274;28;20195;-77
2021/05/04 11:22:25;;;;;;;0.60;0.60;;;10.40;99.90;;;;;;5068869;28;20572;-77
2021/05/04 11:24:54;;;;;;;0.60;0.60;;;10.50;99.90;;;;;;5069369;28;20745;-77
2021/05/04 11:27:31;;;;;;;0.60;0.60;;;10.50;99.90;;;;;;5069163;28;20223;-76
2021/05/04 11:30:03;;;;;;;0.60;0.60;;;10.40;99.90;;;;;;5069642;28;20231;-77
2021/05/04 11:32:44;;;;;;;0.60;0.60;;;10.30;99.90;;;;;;5069612;28;20290;-76
2021/05/04 11:35:11;;;;;;;0.60;0.60;;;12.10;99.90;;;;;;5068195;28;20218;-76
2021/05/04 11:37:44;;;;;;;0.60;0.60;;;10.00;99.90;;;;;;5069021;28;20211;-76
2021/05/04 11:40:24;;;;;;;0.60;0.60;;;9.90;99.90;;;;;;5069015;28;20199;-76
2021/05/04 11:42:53;;;;;;;0.60;0.60;;;9.90;99.90;;;;;;5069324;28;20226;-76
2021/05/04 11:45:21;;;;;;;0.60;0.60;;;10.00;99.90;;;;;;5068246;28;20677;-76
2021/05/04 11:47:51;;;;;;;0.60;0.60;;;10.10;99.90;;;;;;5069261;28;20204;-76
2021/05/04 11:50:19;;;;;;;0.60;0.60;;;10.10;99.90;;;;;;5068560;28;20199;-76
2021/05/04 11:52:46;;;;;;;0.50;0.50;;;10.00;99.90;;;;;;5069259;28;20200;-76
2021/05/04 11:55:18;;;;;;;0.60;0.60;;;9.90;99.90;;;;;;5069146;28;20200;-77
2021/05/04 11:57:46;;;;;;;0.60;0.60;;;9.90;99.90;;;;;;5065682;28;20220;-77
2021/05/04 12:00:16;;;;;;;0.60;0.60;;;9.80;99.90;;;;;;5066700;28;20200;-76
2021/05/04 12:02:45;;;;;;;0.60;0.60;;;9.80;99.90;;;;;;5055606;28;20244;-76
2021/05/04 12:05:16;;;;;;;0.60;0.60;;;9.10;99.90;;;;;;5064882;28;20243;-76
2021/05/04 12:07:46;;;;;;;0.60;0.60;;;10.00;99.90;;;;;;5067620;28;20203;-76
2021/05/04 12:10:27;;;;;;;0.60;0.60;;;10.10;99.90;;;;;;5061863;28;20282;-76
2021/05/04 12:13:02;;;;;;;0.57;0.57;;;10.10;99.90;;;;;;5062023;28;20291;-76
2021/05/04 12:15:32;;;;;;;0.60;0.60;;;10.30;99.90;;;;;;5062552;28;20243;-76
2021/05/04 12:18:08;;;;;;;0.57;0.57;;;10.20;99.90;;;;;;5064562;28;20294;-76
2021/05/04 12:20:51;;;;;;;0.60;0.60;;;10.40;99.90;;;;;;5066438;28;20549;-78
2021/05/04 12:23:25;;;;;;;0.60;0.60;;;10.50;99.90;;;;;;5060899;28;20219;-77
2021/05/04 12:25:55;;;;;;;0.60;0.60;;;10.60;99.90;;;;;;5067761;28;20306;-78
2021/05/04 12:28:25;;;;;;;0.50;0.50;;;10.70;99.90;;;;;;5064046;28;20568;-77
2021/05/04 12:31:01;;;;;;;0.60;0.60;;;10.80;99.90;;;;;;5063007;28;20199;-77
2021/05/04 12:33:29;;;;;;;0.60;0.60;;;11.00;99.90;;;;;;5060512;28;20213;-78
2021/05/04 12:35:59;;;;;;;0.60;0.60;;;11.10;99.90;;;;;;5059680;28;20203;-77
2021/05/04 12:38:28;;;;;;;0.60;0.60;;;11.30;99.90;;;;;;5067607;28;20695;-77
2021/05/04 12:40:57;;;;;;;0.60;0.60;;;11.60;99.90;;;;;;5068097;28;20577;-77
2021/05/04 12:43:27;;;;;;;0.60;0.60;;;11.70;99.90;;;;;;5067972;28;20224;-77
2021/05/04 12:46:08;;;;;;;0.60;0.60;;;11.70;99.90;;;;;;5068315;28;20294;-76
2021/05/04 12:48:36;;;;;;;0.60;0.60;;;11.70;99.90;;;;;;5068505;28;20208;-77
2021/05/04 12:51:10;;;;;;;0.60;0.60;;;11.70;99.90;;;;;;5066916;28;20204;-77
2021/05/04 12:53:38;;;;;;;0.60;0.60;;;11.60;99.90;;;;;;5066794;28;20202;-77
2021/05/04 12:56:13;;;;;;;0.60;0.60;;;11.60;99.90;;;;;;5068939;28;20208;-76
2021/05/04 12:59:00;;;;;;;0.60;0.60;;;11.40;99.90;;;;;;5066941;28;20214;-76
2021/05/04 13:01:43;;;;;;;0.60;0.60;;;10.90;99.90;;;;;;5068286;28;20211;-76
2021/05/04 13:04:30;;;;;;;0.60;0.60;;;10.30;99.90;;;;;;5068347;28;20301;-76
2021/05/04 13:07:00;;;;;;;0.60;0.60;;;9.90;99.90;;;;;;5068696;28;20389;-77